createdAt,value
2017-06-30T00:01:33.769Z,95024.91
2017-06-30T00:04:01.521Z,95027.69
2017-06-30T00:06:29.068Z,95033.38
2017-06-30T00:08:56.646Z,95039.88
2017-06-30T00:11:24.403Z,95041.66
2017-06-30T00:13:51.996Z,95045.75
2017-06-30T00:16:19.620Z,95034.55
2017-06-30T00:18:47.217Z,95037.29
2017-06-30T00:21:14.768Z,95036.58
2017-06-30T00:23:42.346Z,95041.70
2017-06-30T00:26:09.857Z,95045.25
2017-06-30T00:28:37.432Z,95043.94
2017-06-30T00:31:05.039Z,95039.94
2017-06-30T00:33:32.592Z,95041.00
2017-06-30T00:36:00.219Z,95038.55
2017-06-30T00:38:27.805Z,95037.58
2017-06-30T00:40:55.313Z,95040.09
2017-06-30T00:43:23.064Z,95044.31
2017-06-30T00:45:50.629Z,95051.17
2017-06-30T00:48:18.177Z,95051.99
2017-06-30T00:50:45.745Z,95049.25
2017-06-30T00:53:13.322Z,95054.34
2017-06-30T00:55:40.888Z,95054.08
2017-06-30T00:58:08.477Z,95052.38
2017-06-30T01:00:36.060Z,95053.38
2017-06-30T01:03:03.625Z,95059.08
2017-06-30T01:05:31.144Z,95065.63
2017-06-30T01:07:58.985Z,95069.17
2017-06-30T01:10:26.502Z,95068.08
2017-06-30T01:12:54.033Z,95066.88
2017-06-30T01:15:21.613Z,95066.83
2017-06-30T01:17:49.390Z,95069.80
2017-06-30T01:20:16.923Z,95072.62
2017-06-30T01:22:44.520Z,95081.48
2017-06-30T01:25:12.066Z,95076.70
2017-06-30T01:27:39.589Z,95079.97
2017-06-30T01:30:07.447Z,95082.14
2017-06-30T01:32:34.987Z,95091.06
2017-06-30T01:35:02.532Z,95083.45
2017-06-30T01:37:30.119Z,95082.19
2017-06-30T01:39:57.644Z,95079.56
2017-06-30T01:42:25.211Z,95088.47
2017-06-30T01:44:52.775Z,95093.09
2017-06-30T01:47:20.565Z,95093.06
2017-06-30T01:49:48.100Z,95083.94
2017-06-30T01:52:15.682Z,95092.30
2017-06-30T01:54:43.239Z,95097.04
2017-06-30T01:57:10.788Z,95091.33
2017-06-30T01:59:38.379Z,95097.53
2017-06-30T02:02:05.976Z,95094.40
2017-06-30T02:04:33.529Z,95102.44
2017-06-30T02:07:01.132Z,95108.66
2017-06-30T02:09:28.717Z,95104.41
2017-06-30T02:11:56.248Z,95107.72
2017-06-30T02:14:23.792Z,95113.86
2017-06-30T02:16:51.359Z,95113.91
2017-06-30T02:19:18.898Z,95114.87
2017-06-30T02:21:46.437Z,95111.54
2017-06-30T02:24:14.869Z,95111.72
2017-06-30T02:26:42.410Z,95121.16
2017-06-30T02:29:10.010Z,95120.66
2017-06-30T02:31:37.688Z,95130.44
2017-06-30T02:34:05.280Z,95132.50
2017-06-30T02:36:32.902Z,95133.81
2017-06-30T02:39:00.492Z,95138.20
2017-06-30T02:41:28.059Z,95130.80
2017-06-30T02:43:55.817Z,95135.91
2017-06-30T02:46:23.431Z,95145.66
2017-06-30T02:48:50.994Z,95148.17
2017-06-30T02:51:18.578Z,95145.11
2017-06-30T02:53:46.466Z,95148.00
2017-06-30T02:56:14.018Z,95152.67
2017-06-30T02:58:41.553Z,95149.19
2017-06-30T03:01:09.145Z,95163.53
2017-06-30T03:03:36.720Z,95165.02
2017-06-30T03:06:04.273Z,95163.66
2017-06-30T03:08:31.854Z,95162.42
2017-06-30T03:10:59.376Z,95174.70
2017-06-30T03:13:26.978Z,95171.11
2017-06-30T03:15:54.549Z,95174.21
2017-06-30T03:18:22.090Z,95182.38
2017-06-30T03:20:49.841Z,95183.60
2017-06-30T03:23:17.477Z,95183.91
2017-06-30T03:25:45.045Z,95181.44
2017-06-30T03:28:13.460Z,95188.06
2017-06-30T03:30:41.117Z,95190.06
2017-06-30T03:33:08.698Z,95196.91
2017-06-30T03:35:36.233Z,95199.30
2017-06-30T03:38:03.822Z,95209.38
2017-06-30T03:40:31.355Z,95206.61
2017-06-30T03:42:58.888Z,95205.84
2017-06-30T03:45:26.490Z,95204.85
2017-06-30T03:47:54.077Z,95200.25
2017-06-30T03:50:21.586Z,95201.59
2017-06-30T03:52:49.192Z,95198.14
2017-06-30T03:55:16.773Z,95204.09
2017-06-30T03:57:44.528Z,95212.15
2017-06-30T04:00:12.125Z,95210.91
2017-06-30T04:02:39.869Z,95218.40
2017-06-30T04:05:07.426Z,95224.35
2017-06-30T04:07:35.005Z,95224.58
2017-06-30T04:10:02.589Z,95232.81
2017-06-30T04:12:30.390Z,95231.20
2017-06-30T04:14:57.968Z,95234.48
2017-06-30T04:17:25.561Z,95236.50
2017-06-30T04:19:53.087Z,95240.78
2017-06-30T04:22:20.674Z,95244.19
2017-06-30T04:24:48.209Z,95247.44
2017-06-30T04:27:15.772Z,95242.83
2017-06-30T04:29:44.059Z,95250.16
2017-06-30T04:32:11.753Z,95248.72
2017-06-30T04:34:39.927Z,95243.72
2017-06-30T04:37:10.182Z,95248.11
2017-06-30T04:39:38.529Z,95247.25
2017-06-30T04:42:06.179Z,95263.25
2017-06-30T04:44:39.123Z,95257.20
2017-06-30T04:47:08.954Z,95258.78
2017-06-30T04:49:40.046Z,95256.84
2017-06-30T04:52:08.543Z,95262.76
2017-06-30T04:54:38.274Z,95266.89
2017-06-30T04:57:08.046Z,95268.70
2017-06-30T04:59:37.331Z,95272.60
2017-06-30T05:02:06.693Z,95276.98
2017-06-30T05:04:34.294Z,95284.55
2017-06-30T05:07:02.065Z,95287.38
2017-06-30T05:09:29.619Z,95288.36
2017-06-30T05:11:57.165Z,95288.55
2017-06-30T05:14:24.726Z,95297.64
2017-06-30T05:16:52.309Z,95293.81
2017-06-30T05:19:19.892Z,95296.41
2017-06-30T05:21:47.523Z,95298.14
2017-06-30T05:24:15.132Z,95289.34
2017-06-30T05:26:43.085Z,95286.15
2017-06-30T05:29:10.641Z,95297.89
2017-06-30T05:31:38.252Z,95299.45
2017-06-30T05:34:05.821Z,95305.14
2017-06-30T05:36:33.577Z,95304.48
2017-06-30T05:39:01.382Z,95296.76
2017-06-30T05:41:28.889Z,95298.28
2017-06-30T05:43:56.430Z,95299.91
2017-06-30T05:46:24.050Z,95300.10
2017-06-30T05:48:51.592Z,95301.39
2017-06-30T05:51:19.132Z,95304.80
2017-06-30T05:53:46.719Z,95305.00
2017-06-30T05:56:14.461Z,95299.80
2017-06-30T05:58:42.003Z,95305.13
2017-06-30T06:01:09.565Z,95305.11
2017-06-30T06:03:37.095Z,95308.08
2017-06-30T06:06:04.860Z,95310.55
2017-06-30T06:08:32.443Z,95312.09
2017-06-30T06:11:00.012Z,95308.70
2017-06-30T06:13:27.765Z,95310.97
2017-06-30T06:15:55.605Z,95305.55
2017-06-30T06:18:23.388Z,95305.42
2017-06-30T06:20:50.918Z,95297.90
2017-06-30T06:23:18.516Z,95298.28
2017-06-30T06:25:46.105Z,95295.38
2017-06-30T06:28:13.695Z,95295.41
2017-06-30T06:30:41.284Z,95294.11
2017-06-30T06:33:08.849Z,95289.47
2017-06-30T06:35:37.099Z,95299.35
2017-06-30T06:38:04.682Z,95295.03
2017-06-30T06:40:32.294Z,95289.22
2017-06-30T06:43:00.060Z,95293.02
2017-06-30T06:45:27.700Z,95284.40
2017-06-30T06:47:55.290Z,95279.05
2017-06-30T06:50:23.032Z,95284.52
2017-06-30T06:52:50.637Z,95284.13
2017-06-30T06:55:18.249Z,95281.02
2017-06-30T06:57:46.042Z,95276.77
2017-06-30T07:00:13.900Z,95275.66
2017-06-30T07:02:41.664Z,95268.42
2017-06-30T07:05:09.464Z,95268.63
2017-06-30T07:07:37.046Z,95268.06
2017-06-30T07:10:04.672Z,95270.84
2017-06-30T07:12:32.438Z,95274.80
2017-06-30T07:15:00.024Z,95274.17
2017-06-30T07:17:27.797Z,95267.95
2017-06-30T07:19:55.444Z,95270.78
2017-06-30T07:22:23.026Z,95275.70
2017-06-30T07:24:50.558Z,95273.52
2017-06-30T07:27:18.121Z,95267.69
2017-06-30T07:29:45.682Z,95269.44
2017-06-30T07:32:13.283Z,95274.03
2017-06-30T07:34:40.833Z,95273.02
2017-06-30T07:37:08.364Z,95272.20
2017-06-30T07:39:35.918Z,95272.86
2017-06-30T07:42:04.093Z,95277.86
2017-06-30T07:44:31.607Z,95277.19
2017-06-30T07:46:59.192Z,95274.77
2017-06-30T07:49:26.761Z,95281.45
2017-06-30T07:51:55.069Z,95281.83
2017-06-30T07:54:22.658Z,95285.73
2017-06-30T07:56:50.204Z,95283.16
2017-06-30T07:59:17.965Z,95292.33
2017-06-30T08:01:45.528Z,95284.94
2017-06-30T08:04:13.119Z,95285.17
2017-06-30T08:06:40.660Z,95288.02
2017-06-30T08:09:08.257Z,95281.72
2017-06-30T08:11:36.104Z,95285.17
2017-06-30T08:14:03.654Z,95282.66
2017-06-30T08:16:31.244Z,95282.04
2017-06-30T08:18:58.824Z,95273.17
2017-06-30T08:21:26.365Z,95276.57
2017-06-30T08:23:53.982Z,95274.14
2017-06-30T08:26:21.532Z,95280.22
2017-06-30T08:28:49.113Z,95273.27
2017-06-30T08:31:16.723Z,95283.65
2017-06-30T08:33:44.274Z,95286.64
2017-06-30T08:36:11.824Z,95274.25
2017-06-30T08:38:39.400Z,95276.48
2017-06-30T08:41:07.004Z,95276.53
2017-06-30T08:43:34.546Z,95275.66
2017-06-30T08:46:02.149Z,95275.91
2017-06-30T08:48:29.695Z,95278.77
2017-06-30T08:50:57.208Z,95272.93
2017-06-30T08:53:24.799Z,95273.06
2017-06-30T08:55:52.330Z,95275.05
2017-06-30T08:58:19.884Z,95267.52
2017-06-30T09:00:47.454Z,95264.83
2017-06-30T09:03:14.968Z,95262.92
2017-06-30T09:05:42.498Z,95267.73
2017-06-30T09:08:10.076Z,95260.11
2017-06-30T09:10:37.610Z,95254.41
2017-06-30T09:13:05.405Z,95248.61
2017-06-30T09:15:32.978Z,95247.44
2017-06-30T09:18:00.511Z,95245.66
2017-06-30T09:20:28.089Z,95237.64
2017-06-30T09:22:55.666Z,95237.30
2017-06-30T09:25:23.408Z,95233.82
2017-06-30T09:27:51.154Z,95229.05
2017-06-30T09:30:18.794Z,95227.13
2017-06-30T09:32:46.652Z,95223.72
2017-06-30T09:35:14.157Z,95220.14
2017-06-30T09:37:41.730Z,95215.83
2017-06-30T09:40:09.260Z,95213.59
2017-06-30T09:42:37.005Z,95209.67
2017-06-30T09:45:04.578Z,95204.11
2017-06-30T09:47:32.124Z,95212.29
2017-06-30T09:49:59.735Z,95209.09
2017-06-30T09:52:27.304Z,95205.09
2017-06-30T09:54:54.904Z,95199.98
2017-06-30T09:57:22.444Z,95198.42
2017-06-30T09:59:50.017Z,95187.24
2017-06-30T10:02:17.600Z,95187.91
2017-06-30T10:04:45.365Z,95183.88
2017-06-30T10:07:13.124Z,95179.25
2017-06-30T10:09:40.707Z,95166.47
2017-06-30T10:12:09.085Z,95171.55
2017-06-30T10:14:36.678Z,95155.95
2017-06-30T10:17:04.277Z,95151.28
2017-06-30T10:19:31.863Z,95153.80
2017-06-30T10:21:59.624Z,95149.50
2017-06-30T10:24:27.256Z,95139.55
2017-06-30T10:26:55.020Z,95134.32
2017-06-30T10:29:22.531Z,95138.35
2017-06-30T10:31:50.146Z,95143.43
2017-06-30T10:34:17.689Z,95143.31
2017-06-30T10:36:45.242Z,95137.17
2017-06-30T10:39:12.844Z,95136.13
2017-06-30T10:41:40.353Z,95128.25
2017-06-30T10:44:08.324Z,95140.42
2017-06-30T10:46:35.962Z,95138.00
2017-06-30T10:49:03.531Z,95141.73
2017-06-30T10:51:31.286Z,95134.58
2017-06-30T10:53:58.888Z,95131.91
2017-06-30T10:56:26.465Z,95136.91
2017-06-30T10:58:54.039Z,95135.75
2017-06-30T11:01:21.683Z,95132.02
2017-06-30T11:03:49.510Z,95127.59
2017-06-30T11:06:17.076Z,95128.98
2017-06-30T11:08:44.681Z,95129.63
2017-06-30T11:11:12.936Z,95128.86
2017-06-30T11:13:40.743Z,95121.53
2017-06-30T11:16:08.330Z,95117.97
2017-06-30T11:18:36.100Z,95127.19
2017-06-30T11:21:04.234Z,95133.07
2017-06-30T11:23:32.072Z,95135.11
2017-06-30T11:25:59.620Z,95135.24
2017-06-30T11:28:27.219Z,95129.87
2017-06-30T11:30:54.813Z,95120.28
2017-06-30T11:33:22.568Z,95119.91
2017-06-30T11:35:50.154Z,95118.98
2017-06-30T11:38:17.749Z,95117.58
2017-06-30T11:40:45.329Z,95124.73
2017-06-30T11:43:13.825Z,95115.42
2017-06-30T11:45:41.815Z,95110.14
2017-06-30T11:48:09.399Z,95115.36
2017-06-30T11:50:37.030Z,95112.20
2017-06-30T11:53:04.692Z,95110.92
2017-06-30T11:55:32.981Z,95110.28
2017-06-30T11:58:01.870Z,95117.05
2017-06-30T12:00:30.395Z,95116.16
2017-06-30T12:02:57.981Z,95115.39
2017-06-30T12:05:26.363Z,95105.81
2017-06-30T12:07:54.899Z,95114.34
2017-06-30T12:10:22.492Z,95107.30
2017-06-30T12:12:50.050Z,95098.91
2017-06-30T12:15:17.636Z,95110.46
2017-06-30T12:17:45.233Z,95109.67
2017-06-30T12:20:12.807Z,95099.34
2017-06-30T12:22:40.462Z,95095.40
2017-06-30T12:25:08.009Z,95089.77
2017-06-30T12:27:35.600Z,95085.97
2017-06-30T12:30:05.121Z,95088.19
2017-06-30T12:32:32.717Z,95091.92
2017-06-30T12:35:00.271Z,95079.31
2017-06-30T12:37:27.877Z,95086.05
2017-06-30T12:39:55.468Z,95084.72
2017-06-30T12:42:22.985Z,95084.36
2017-06-30T12:44:50.596Z,95085.44
2017-06-30T12:47:18.362Z,95078.27
2017-06-30T12:49:46.087Z,95076.97
2017-06-30T12:52:13.668Z,95068.18
2017-06-30T12:54:42.086Z,95063.96
2017-06-30T12:57:09.658Z,95072.53
2017-06-30T12:59:37.255Z,95081.36
2017-06-30T13:02:04.849Z,95073.86
2017-06-30T13:04:32.661Z,95062.92
2017-06-30T13:07:00.444Z,95066.23
2017-06-30T13:09:27.999Z,95074.25
2017-06-30T13:11:55.754Z,95075.31
2017-06-30T13:14:23.324Z,95078.31
2017-06-30T13:16:50.977Z,95077.78
2017-06-30T13:19:18.485Z,95074.94
2017-06-30T13:21:46.213Z,95071.47
2017-06-30T13:24:13.819Z,95072.64
2017-06-30T13:26:41.386Z,95068.31
2017-06-30T13:29:08.946Z,95064.09
2017-06-30T13:31:36.565Z,95070.31
2017-06-30T13:34:04.105Z,95066.20
2017-06-30T13:36:31.847Z,95067.32
2017-06-30T13:38:59.432Z,95072.16
2017-06-30T13:41:27.185Z,95066.42
2017-06-30T13:43:54.745Z,95062.96
2017-06-30T13:46:22.354Z,95060.80
2017-06-30T13:48:49.921Z,95054.05
2017-06-30T13:51:17.510Z,95060.05
2017-06-30T13:53:45.085Z,95070.67
2017-06-30T13:56:12.708Z,95056.61
2017-06-30T13:58:40.287Z,95065.27
2017-06-30T14:01:08.677Z,95067.05
2017-06-30T14:03:36.273Z,95066.95
2017-06-30T14:06:04.072Z,95071.03
2017-06-30T14:08:31.701Z,95067.71
2017-06-30T14:10:59.281Z,95072.62
2017-06-30T14:13:26.875Z,95073.53
2017-06-30T14:15:54.449Z,95066.32
2017-06-30T14:18:22.064Z,95064.70
2017-06-30T14:20:49.637Z,95067.91
2017-06-30T14:23:17.249Z,95067.27
2017-06-30T14:25:44.797Z,95057.42
2017-06-30T14:28:12.537Z,95057.41
2017-06-30T14:30:40.325Z,95066.36
2017-06-30T14:33:07.978Z,95062.00
2017-06-30T14:35:36.467Z,95048.30
2017-06-30T14:38:04.049Z,95057.77
2017-06-30T14:40:31.689Z,95060.19
2017-06-30T14:42:59.630Z,95053.16
2017-06-30T14:45:27.739Z,95056.60
2017-06-30T14:47:55.331Z,95055.17
2017-06-30T14:50:23.126Z,95051.55
2017-06-30T14:52:50.669Z,95052.68
2017-06-30T14:55:18.305Z,95061.58
2017-06-30T14:57:46.056Z,95060.50
2017-06-30T15:00:13.701Z,95063.52
2017-06-30T15:02:41.310Z,95063.70
2017-06-30T15:05:09.136Z,95061.55
2017-06-30T15:07:36.710Z,95063.33
2017-06-30T15:10:04.293Z,95066.92
2017-06-30T15:12:31.853Z,95076.16
2017-06-30T15:14:59.457Z,95073.11
2017-06-30T15:17:26.994Z,95071.22
2017-06-30T15:19:54.512Z,95071.99
2017-06-30T15:22:22.148Z,95067.02
2017-06-30T15:24:49.724Z,95073.02
2017-06-30T15:27:17.272Z,95064.34
2017-06-30T15:29:44.857Z,95075.12
2017-06-30T15:32:12.453Z,95079.46
2017-06-30T15:34:40.326Z,95076.97
2017-06-30T15:37:07.834Z,95073.97
2017-06-30T15:39:35.537Z,95079.61
2017-06-30T15:42:03.387Z,95064.02
2017-06-30T15:44:30.923Z,95078.45
2017-06-30T15:46:58.505Z,95077.86
2017-06-30T15:49:26.299Z,95083.14
2017-06-30T15:51:54.746Z,95078.28
2017-06-30T15:54:22.342Z,95077.11
2017-06-30T15:56:49.924Z,95082.26
2017-06-30T15:59:17.446Z,95077.53
2017-06-30T16:01:45.108Z,95074.00
2017-06-30T16:04:13.105Z,95074.11
2017-06-30T16:06:41.205Z,95081.39
2017-06-30T16:09:08.785Z,95074.98
2017-06-30T16:11:36.337Z,95078.12
2017-06-30T16:14:04.511Z,95075.39
2017-06-30T16:16:32.265Z,95081.72
2017-06-30T16:19:00.036Z,95074.52
2017-06-30T16:21:27.745Z,95075.02
2017-06-30T16:23:55.402Z,95076.89
2017-06-30T16:26:23.175Z,95082.36
2017-06-30T16:28:50.762Z,95077.14
2017-06-30T16:31:19.718Z,95081.95
2017-06-30T16:33:47.902Z,95079.70
2017-06-30T16:36:16.223Z,95084.19
2017-06-30T16:38:43.789Z,95087.81
2017-06-30T16:41:11.338Z,95096.73
2017-06-30T16:43:39.089Z,95095.56
2017-06-30T16:46:06.687Z,95100.89
2017-06-30T16:48:34.368Z,95103.16
2017-06-30T16:51:01.979Z,95095.74
2017-06-30T16:53:29.568Z,95096.22
2017-06-30T16:55:57.102Z,95092.59
2017-06-30T16:58:24.657Z,95095.01
2017-06-30T17:00:52.290Z,95095.92
2017-06-30T17:03:19.899Z,95095.52
2017-06-30T17:05:47.463Z,95097.34
2017-06-30T17:08:15.060Z,95088.72
2017-06-30T17:10:42.744Z,95096.41
2017-06-30T17:13:10.335Z,95093.37
2017-06-30T17:15:37.975Z,95097.52
2017-06-30T17:18:05.823Z,95095.69
2017-06-30T17:20:34.112Z,95101.23
2017-06-30T17:23:02.194Z,95104.91
2017-06-30T17:25:30.035Z,95103.67
2017-06-30T17:27:57.560Z,95107.02
2017-06-30T17:30:25.136Z,95106.87
2017-06-30T17:32:52.663Z,95103.13
2017-06-30T17:35:20.430Z,95108.67
2017-06-30T17:37:48.015Z,95101.67
2017-06-30T17:40:15.552Z,95109.05
2017-06-30T17:42:43.129Z,95110.95
2017-06-30T17:45:10.715Z,95114.21
2017-06-30T17:47:38.295Z,95113.49
2017-06-30T17:50:05.891Z,95125.17
2017-06-30T17:52:33.482Z,95117.85
2017-06-30T17:55:01.008Z,95115.27
2017-06-30T17:57:28.521Z,95116.83
2017-06-30T17:59:56.111Z,95115.91
2017-06-30T18:02:23.759Z,95114.95
2017-06-30T18:04:51.606Z,95116.30
2017-06-30T18:07:19.211Z,95123.89
2017-06-30T18:09:47.891Z,95120.03
2017-06-30T18:12:15.833Z,95122.65
2017-06-30T18:14:43.456Z,95123.78
2017-06-30T18:17:11.589Z,95131.09
2017-06-30T18:19:39.230Z,95127.41
2017-06-30T18:22:07.102Z,95131.80
2017-06-30T18:24:35.544Z,95138.77
2017-06-30T18:27:03.129Z,95139.31
2017-06-30T18:29:30.791Z,95139.57
2017-06-30T18:31:58.385Z,95138.47
2017-06-30T18:34:26.595Z,95137.47
2017-06-30T18:36:54.488Z,95143.33
2017-06-30T18:39:22.114Z,95145.32
2017-06-30T18:41:49.851Z,95146.78
2017-06-30T18:44:17.392Z,95141.46
2017-06-30T18:46:45.030Z,95146.00
2017-06-30T18:49:12.806Z,95157.92
2017-06-30T18:51:41.432Z,95161.69
2017-06-30T18:54:09.887Z,95159.30
2017-06-30T18:56:38.900Z,95156.16
2017-06-30T18:59:06.493Z,95166.02
2017-06-30T19:01:34.064Z,95173.25
2017-06-30T19:04:01.578Z,95178.95
2017-06-30T19:06:29.611Z,95169.72
2017-06-30T19:08:58.093Z,95175.78
2017-06-30T19:11:25.654Z,95192.93
2017-06-30T19:13:53.440Z,95195.62
2017-06-30T19:16:21.275Z,95193.03
2017-06-30T19:18:49.062Z,95190.29
2017-06-30T19:21:16.977Z,95183.84
2017-06-30T19:23:44.962Z,95188.78
2017-06-30T19:26:13.161Z,95192.23
2017-06-30T19:28:40.720Z,95194.20
2017-06-30T19:31:08.322Z,95188.64
2017-06-30T19:33:37.474Z,95188.30
2017-06-30T19:36:05.582Z,95189.26
2017-06-30T19:38:33.866Z,95187.31
2017-06-30T19:41:01.411Z,95189.41
2017-06-30T19:43:29.010Z,95198.78
2017-06-30T19:45:57.473Z,95201.73
2017-06-30T19:48:25.054Z,95199.09
2017-06-30T19:50:52.660Z,95198.53
2017-06-30T19:53:24.775Z,95209.66
2017-06-30T19:55:55.404Z,95216.86
2017-06-30T19:58:22.999Z,95205.40
2017-06-30T20:00:50.564Z,95180.17
2017-06-30T20:03:18.328Z,95184.28
2017-06-30T20:05:45.876Z,95205.27
2017-06-30T20:08:13.441Z,95192.80
2017-06-30T20:10:41.089Z,95199.77
2017-06-30T20:13:09.060Z,95201.77
2017-06-30T20:15:37.520Z,95194.67
2017-06-30T20:18:05.073Z,95183.98
2017-06-30T20:20:32.623Z,95196.27
2017-06-30T20:23:00.245Z,95207.35
2017-06-30T20:25:28.387Z,95180.34
2017-06-30T20:27:56.206Z,95186.88
2017-06-30T20:30:23.838Z,95196.31
2017-06-30T20:32:51.594Z,95192.44
2017-06-30T20:35:19.125Z,95215.24
2017-06-30T20:37:46.726Z,95192.34
2017-06-30T20:40:15.468Z,95194.13
2017-06-30T20:42:43.039Z,95198.43
2017-06-30T20:45:10.638Z,95206.59
2017-06-30T20:47:38.550Z,95191.63
2017-06-30T20:50:06.100Z,95197.08
2017-06-30T20:52:33.735Z,95207.98
2017-06-30T20:55:01.343Z,95205.53
2017-06-30T20:57:28.893Z,95203.55
2017-06-30T20:59:56.968Z,95214.28
2017-06-30T21:02:24.881Z,95213.13
2017-06-30T21:04:52.501Z,95216.45
2017-06-30T21:07:20.047Z,95212.51
2017-06-30T21:09:48.392Z,95210.17
2017-06-30T21:12:16.531Z,95209.68
2017-06-30T21:14:44.457Z,95214.84
2017-06-30T21:17:12.140Z,95206.77
2017-06-30T21:19:39.702Z,95210.19
2017-06-30T21:22:07.269Z,95214.75
2017-06-30T21:24:34.836Z,95195.79
2017-06-30T21:27:02.409Z,95211.14
2017-06-30T21:29:29.940Z,95215.18
2017-06-30T21:31:57.535Z,95207.42
2017-06-30T21:34:25.101Z,95205.97
2017-06-30T21:36:52.677Z,95213.41
2017-06-30T21:39:20.341Z,95206.70
2017-06-30T21:41:48.124Z,95217.27
2017-06-30T21:44:15.700Z,95214.02
2017-06-30T21:46:43.544Z,95205.55
2017-06-30T21:49:11.062Z,95209.58
2017-06-30T21:51:39.424Z,95216.52
2017-06-30T21:54:07.057Z,95210.95
2017-06-30T21:56:35.384Z,95216.31
2017-06-30T21:59:02.944Z,95200.50
2017-06-30T22:01:30.521Z,95211.97
2017-06-30T22:03:58.034Z,95215.59
2017-06-30T22:06:25.581Z,95213.84
2017-06-30T22:08:53.131Z,95209.75
2017-06-30T22:11:20.659Z,95217.97
2017-06-30T22:13:48.421Z,95213.78
2017-06-30T22:16:15.997Z,95202.27
2017-06-30T22:18:43.554Z,95211.64
2017-06-30T22:21:11.102Z,95194.70
2017-06-30T22:23:38.685Z,95199.95
2017-06-30T22:26:06.456Z,95195.47
2017-06-30T22:28:33.975Z,95205.49
2017-06-30T22:31:01.577Z,95197.38
2017-06-30T22:33:29.111Z,95204.21
2017-06-30T22:35:56.670Z,95197.45
2017-06-30T22:38:24.241Z,95190.64
2017-06-30T22:40:51.753Z,95193.00
2017-06-30T22:43:19.283Z,95181.29
2017-06-30T22:45:47.236Z,95187.55
2017-06-30T22:48:14.797Z,95175.56
2017-06-30T22:50:42.559Z,95180.91
2017-06-30T22:53:10.881Z,95175.17
2017-06-30T22:55:38.490Z,95189.36
2017-06-30T22:58:06.054Z,95188.83
2017-06-30T23:00:33.617Z,95175.84
2017-06-30T23:03:01.130Z,95180.51
2017-06-30T23:05:29.257Z,95180.45
2017-06-30T23:07:56.857Z,95181.33
2017-06-30T23:10:24.384Z,95171.07
2017-06-30T23:12:51.904Z,95171.19
2017-06-30T23:15:19.507Z,95175.25
2017-06-30T23:17:47.040Z,95170.17
2017-06-30T23:20:14.566Z,95165.66
2017-06-30T23:22:42.166Z,95163.36
2017-06-30T23:25:09.798Z,95171.73
2017-06-30T23:27:37.396Z,95162.59
2017-06-30T23:30:06.548Z,95168.12
2017-06-30T23:32:38.626Z,95163.85
2017-06-30T23:37:56.924Z,95157.20
2017-06-30T23:40:30.994Z,95147.89
2017-06-30T23:42:58.663Z,95156.14
2017-06-30T23:45:26.296Z,95150.78
2017-06-30T23:47:54.182Z,95159.89
2017-06-30T23:50:21.808Z,95158.19
2017-06-30T23:52:49.416Z,95163.38
2017-06-30T23:55:17.396Z,95150.47
2017-06-30T23:57:44.986Z,95159.44
